Time;durP1;ratioP1;P1;durP2;ratioP2;P2;SDS_P1;SDS_P2;PMS_P1;PMS_P2;Temp;Humidity;BMP_temperature;BMP_pressure;BME280_temperature;BME280_humidity;BME280_pressure;Samples;Min_cycle;Max_cycle;Signal;HPM_P1;HPM_P2
2023/06/08 00:00:12;;;;;;;6.70;3.55;;;22.60;53.90;;;;;;4950432;29;20445;-55
2023/06/08 00:02:39;;;;;;;7.25;3.40;;;22.60;53.80;;;;;;4948964;29;20039;-51
2023/06/08 00:05:07;;;;;;;6.75;3.63;;;22.60;53.80;;;;;;4949713;28;20034;-53
2023/06/08 00:07:34;;;;;;;10.48;3.58;;;22.60;53.70;;;;;;4950230;29;20028;-55
2023/06/08 00:10:00;;;;;;;11.57;3.67;;;22.60;53.90;;;;;;4950160;29;20023;-52
2023/06/08 00:12:27;;;;;;;5.78;3.53;;;22.60;53.80;;;;;;4950035;29;20030;-50
2023/06/08 00:14:53;;;;;;;7.43;3.60;;;22.60;53.70;;;;;;4949736;28;20510;-54
2023/06/08 00:17:19;;;;;;;5.07;3.30;;;22.60;53.70;;;;;;4950090;29;20028;-53
2023/06/08 00:19:45;;;;;;;8.90;3.55;;;22.60;53.90;;;;;;4933168;29;20035;-52
2023/06/08 00:22:12;;;;;;;6.50;3.17;;;22.60;53.90;;;;;;4952562;28;20441;-54
2023/06/08 00:24:38;;;;;;;5.43;3.20;;;22.60;53.80;;;;;;4952867;28;20032;-53
2023/06/08 00:27:06;;;;;;;7.32;3.35;;;22.60;53.80;;;;;;4953392;28;20084;-52
2023/06/08 00:29:33;;;;;;;9.23;3.65;;;22.60;53.80;;;;;;4953274;28;20491;-54
2023/06/08 00:31:59;;;;;;;9.02;4.10;;;22.60;54.00;;;;;;4952231;28;20039;-54
2023/06/08 00:34:26;;;;;;;5.82;3.45;;;22.60;53.80;;;;;;4951633;29;20035;-52
2023/06/08 00:36:55;;;;;;;6.00;3.25;;;22.60;53.90;;;;;;5036516;28;20039;-54
2023/06/08 00:39:22;;;;;;;7.68;3.63;;;22.60;53.90;;;;;;5036339;28;20039;-54
2023/06/08 00:41:48;;;;;;;6.15;3.20;;;22.70;54.10;;;;;;4952053;29;20102;-48
2023/06/08 00:44:14;;;;;;;7.07;3.60;;;22.60;54.00;;;;;;4951499;29;20502;-53
2023/06/08 00:46:40;;;;;;;11.52;3.50;;;22.70;54.10;;;;;;4953069;28;20034;-51
2023/06/08 00:49:08;;;;;;;12.57;3.53;;;22.60;53.90;;;;;;4952952;29;20031;-52
2023/06/08 00:51:39;;;;;;;7.65;3.50;;;22.60;53.80;;;;;;4952895;29;20029;-51
2023/06/08 00:54:10;;;;;;;10.50;3.40;;;22.60;53.90;;;;;;4951371;29;20050;-54
2023/06/08 00:56:38;;;;;;;7.70;3.08;;;22.60;53.80;;;;;;4952919;28;20093;-54
2023/06/08 00:59:05;;;;;;;5.05;3.10;;;22.60;53.80;;;;;;4951951;29;20031;-52
2023/06/08 01:01:31;;;;;;;9.95;3.78;;;22.60;53.80;;;;;;4953206;28;20051;-53
2023/06/08 01:04:07;;;;;;;8.90;3.67;;;22.60;53.60;;;;;;4952822;28;20024;-51
2023/06/08 01:06:38;;;;;;;12.30;3.63;;;22.70;54.00;;;;;;4953055;29;20031;-54
2023/06/08 01:09:34;;;;;;;12.52;3.80;;;22.60;53.60;;;;;;4951916;29;20110;-54
2023/06/08 01:12:33;;;;;;;7.78;3.72;;;22.60;54.50;;;;;;4953319;28;20039;-54
2023/06/08 01:15:07;;;;;;;7.85;3.33;;;22.60;54.20;;;;;;4950496;29;20419;-50
2023/06/08 01:17:40;;;;;;;9.35;3.65;;;22.60;53.60;;;;;;4951933;29;20042;-54
2023/06/08 01:20:29;;;;;;;6.43;3.38;;;22.60;53.60;;;;;;4952874;28;20057;-52
2023/06/08 01:23:07;;;;;;;5.50;3.50;;;22.60;53.70;;;;;;4952766;28;20032;-54
2023/06/08 01:25:35;;;;;;;5.93;3.70;;;22.60;53.70;;;;;;4952492;29;20031;-54
2023/06/08 01:28:12;;;;;;;8.38;3.60;;;22.60;53.70;;;;;;4951611;29;20553;-55
2023/06/08 01:30:44;;;;;;;6.60;3.53;;;22.60;53.60;;;;;;5035992;28;20070;-54
2023/06/08 01:33:13;;;;;;;7.03;3.58;;;22.60;53.60;;;;;;4952183;28;20431;-51
2023/06/08 01:35:39;;;;;;;7.60;3.37;;;22.70;53.80;;;;;;4952852;28;20031;-55
2023/06/08 01:38:22;;;;;;;6.47;3.30;;;22.60;53.80;;;;;;4952783;28;20483;-50
2023/06/08 01:40:54;;;;;;;6.28;3.40;;;22.60;53.70;;;;;;4935537;29;20491;-54
2023/06/08 01:43:22;;;;;;;6.72;3.45;;;22.60;53.70;;;;;;5035315;28;20027;-52
2023/06/08 01:45:51;;;;;;;8.13;3.60;;;22.60;53.60;;;;;;5035362;28;20422;-55
2023/06/08 01:48:22;;;;;;;7.97;3.30;;;22.60;53.70;;;;;;4952577;28;20058;-55
2023/06/08 01:50:51;;;;;;;4.93;3.03;;;22.60;53.60;;;;;;4952625;29;20514;-51
2023/06/08 01:53:17;;;;;;;6.68;3.45;;;22.60;53.70;;;;;;4951110;29;20034;-50
2023/06/08 01:55:47;;;;;;;5.57;3.20;;;22.60;53.70;;;;;;4952150;29;20031;-53
2023/06/08 01:58:14;;;;;;;5.85;3.42;;;22.60;53.70;;;;;;4952391;28;20453;-56
2023/06/08 02:00:40;;;;;;;6.82;3.58;;;22.60;53.70;;;;;;4951157;29;20398;-54
2023/06/08 02:03:06;;;;;;;8.93;3.33;;;22.60;53.60;;;;;;4952253;28;20508;-49
2023/06/08 02:05:31;;;;;;;6.10;3.40;;;22.60;53.60;;;;;;4950697;29;20122;-56
2023/06/08 02:07:59;;;;;;;5.72;3.47;;;22.60;53.80;;;;;;4951015;29;20027;-55
2023/06/08 02:10:26;;;;;;;7.85;3.45;;;22.60;53.90;;;;;;4951092;29;20081;-56
2023/06/08 02:12:52;;;;;;;7.30;3.47;;;22.70;54.00;;;;;;5035276;28;20035;-56
2023/06/08 02:15:18;;;;;;;8.18;3.47;;;22.60;53.60;;;;;;4949992;29;20085;-55
2023/06/08 02:17:44;;;;;;;7.63;3.53;;;22.70;53.70;;;;;;4951888;29;20031;-52
2023/06/08 02:20:09;;;;;;;4.25;3.10;;;22.60;53.80;;;;;;4950854;29;20035;-56
2023/06/08 02:22:37;;;;;;;7.03;3.58;;;22.60;53.70;;;;;;4950726;29;20039;-49
2023/06/08 02:25:05;;;;;;;7.47;3.45;;;22.70;53.90;;;;;;4951500;28;20222;-55
2023/06/08 02:27:35;;;;;;;12.88;3.30;;;22.70;54.10;;;;;;4951971;28;20409;-55
2023/06/08 02:30:07;;;;;;;6.10;3.53;;;22.70;53.90;;;;;;4950709;29;20035;-53
2023/06/08 02:32:32;;;;;;;8.68;3.50;;;22.70;53.90;;;;;;4966894;28;20027;-52
2023/06/08 02:35:03;;;;;;;9.25;3.45;;;22.70;53.70;;;;;;4950375;29;20041;-52
2023/06/08 02:37:33;;;;;;;8.45;3.60;;;22.60;54.00;;;;;;5034461;28;20568;-54
2023/06/08 02:40:04;;;;;;;6.63;3.13;;;22.60;53.70;;;;;;4952163;28;20061;-51
2023/06/08 02:42:33;;;;;;;6.15;3.13;;;22.60;53.60;;;;;;4969240;28;20464;-48
2023/06/08 02:45:01;;;;;;;5.80;3.15;;;22.60;53.60;;;;;;4950711;28;20494;-51
2023/06/08 02:47:29;;;;;;;13.68;3.50;;;22.60;53.70;;;;;;4953948;28;20030;-56
2023/06/08 02:49:55;;;;;;;8.40;3.63;;;22.60;53.50;;;;;;4953597;28;20386;-52
2023/06/08 02:52:22;;;;;;;8.52;3.28;;;22.60;53.50;;;;;;4953570;28;20042;-55
2023/06/08 02:54:48;;;;;;;7.50;3.78;;;22.60;53.70;;;;;;4970371;28;20429;-57
2023/06/08 02:57:14;;;;;;;5.50;3.35;;;22.60;53.60;;;;;;4953468;28;20039;-52
2023/06/08 02:59:49;;;;;;;6.95;3.47;;;22.60;53.50;;;;;;4969548;28;20034;-55
2023/06/08 03:02:15;;;;;;;6.97;3.17;;;22.60;53.50;;;;;;4969402;28;20795;-53
2023/06/08 03:04:43;;;;;;;7.05;3.30;;;22.60;53.60;;;;;;4952875;28;20035;-51
2023/06/08 03:07:15;;;;;;;6.78;3.40;;;22.60;53.50;;;;;;4969468;28;20034;-55
2023/06/08 03:09:42;;;;;;;5.05;3.10;;;22.60;53.90;;;;;;4969290;28;20041;-53
2023/06/08 03:12:13;;;;;;;6.20;3.17;;;22.60;53.70;;;;;;4969346;28;20033;-56
2023/06/08 03:14:41;;;;;;;11.27;3.05;;;22.60;53.70;;;;;;4968993;28;20106;-52
2023/06/08 03:17:08;;;;;;;5.93;3.58;;;22.60;53.50;;;;;;4969304;28;20026;-51
2023/06/08 03:19:37;;;;;;;7.47;3.47;;;22.70;53.70;;;;;;4969234;28;20590;-51
2023/06/08 03:22:06;;;;;;;7.43;3.45;;;22.60;53.70;;;;;;4952978;28;20035;-50
2023/06/08 03:24:42;;;;;;;8.35;3.40;;;22.60;53.50;;;;;;4952585;28;20494;-50
2023/06/08 03:27:10;;;;;;;6.95;3.25;;;22.60;53.50;;;;;;4969211;28;20023;-55
2023/06/08 03:29:36;;;;;;;5.93;3.50;;;22.60;53.50;;;;;;4969255;28;20061;-57
2023/06/08 03:32:06;;;;;;;8.75;3.25;;;22.60;53.90;;;;;;4952931;28;20027;-56
2023/06/08 03:34:33;;;;;;;6.28;3.22;;;22.60;53.60;;;;;;4968506;28;20035;-55
2023/06/08 03:37:04;;;;;;;4.10;2.95;;;22.60;53.40;;;;;;4953040;28;20038;-54
2023/06/08 03:39:32;;;;;;;7.20;3.63;;;22.60;53.50;;;;;;4970073;28;20037;-50
2023/06/08 03:41:58;;;;;;;6.80;3.30;;;22.60;53.60;;;;;;4952850;28;20038;-48
2023/06/08 03:44:28;;;;;;;7.03;3.28;;;22.60;53.50;;;;;;4952400;28;20034;-55
2023/06/08 03:46:55;;;;;;;7.60;3.35;;;22.60;53.50;;;;;;4952683;28;20035;-51
2023/06/08 03:49:21;;;;;;;4.85;3.33;;;22.60;53.30;;;;;;4968919;28;20093;-53
2023/06/08 03:51:48;;;;;;;5.18;3.33;;;22.60;53.50;;;;;;4952751;28;20027;-52
2023/06/08 03:54:15;;;;;;;7.10;3.50;;;22.60;53.50;;;;;;4968412;28;20148;-53
2023/06/08 03:56:41;;;;;;;7.93;3.30;;;22.70;53.70;;;;;;4952446;28;20557;-55
2023/06/08 03:59:06;;;;;;;4.97;3.25;;;22.60;53.60;;;;;;4952788;28;20104;-57
2023/06/08 04:01:35;;;;;;;6.07;3.28;;;22.70;53.70;;;;;;4968864;28;20034;-50
2023/06/08 04:04:02;;;;;;;8.93;3.40;;;22.70;53.50;;;;;;4968213;28;20107;-55
2023/06/08 04:06:33;;;;;;;8.63;3.20;;;22.70;53.50;;;;;;4968620;28;20038;-55
2023/06/08 04:09:00;;;;;;;4.95;3.13;;;22.60;53.60;;;;;;4952615;28;20111;-55
2023/06/08 04:11:27;;;;;;;4.75;3.05;;;22.70;53.50;;;;;;4936775;28;20034;-54
2023/06/08 04:13:53;;;;;;;8.05;3.20;;;22.70;53.60;;;;;;4969413;28;20019;-56
2023/06/08 04:16:19;;;;;;;8.25;3.20;;;22.70;53.70;;;;;;4952540;28;20038;-58
2023/06/08 04:18:50;;;;;;;6.38;3.30;;;22.70;53.50;;;;;;4968634;28;20114;-57
2023/06/08 04:21:18;;;;;;;4.95;2.95;;;22.70;53.40;;;;;;4952612;28;20561;-56
2023/06/08 04:23:46;;;;;;;4.50;3.15;;;22.70;53.40;;;;;;4951824;28;20030;-55
2023/06/08 04:26:15;;;;;;;7.00;3.30;;;22.70;53.50;;;;;;4952419;28;20023;-56
2023/06/08 04:28:42;;;;;;;9.38;3.00;;;22.70;53.40;;;;;;4952218;28;20031;-55
2023/06/08 04:31:08;;;;;;;5.95;2.80;;;22.70;53.30;;;;;;4968402;28;20026;-53
2023/06/08 04:33:35;;;;;;;6.82;3.40;;;22.70;53.50;;;;;;4951912;28;20031;-56
2023/06/08 04:36:06;;;;;;;5.68;3.33;;;22.60;53.20;;;;;;4968332;28;20027;-55
2023/06/08 04:38:33;;;;;;;5.25;3.10;;;22.70;53.20;;;;;;4952222;28;20039;-57
2023/06/08 04:41:01;;;;;;;6.03;3.40;;;22.70;53.20;;;;;;4968362;28;20037;-53
2023/06/08 04:43:31;;;;;;;6.28;3.17;;;22.60;53.20;;;;;;4967822;28;20031;-56
2023/06/08 04:46:04;;;;;;;5.60;3.33;;;22.60;53.60;;;;;;4952126;28;20402;-56
2023/06/08 04:48:33;;;;;;;6.33;3.47;;;22.70;53.40;;;;;;4952186;28;20265;-56
2023/06/08 04:51:03;;;;;;;8.40;3.22;;;22.60;53.20;;;;;;4969572;28;20416;-58
2023/06/08 04:53:33;;;;;;;6.07;3.38;;;22.70;53.30;;;;;;4951668;28;20034;-57
2023/06/08 04:56:02;;;;;;;6.22;3.35;;;22.70;53.60;;;;;;4969505;28;20482;-53
2023/06/08 04:58:29;;;;;;;5.65;3.40;;;22.60;53.40;;;;;;4951974;28;20449;-54
2023/06/08 05:00:56;;;;;;;8.57;3.50;;;22.60;53.30;;;;;;4967944;28;20035;-56
2023/06/08 05:03:23;;;;;;;5.10;3.38;;;22.70;53.60;;;;;;4951931;28;20031;-58
2023/06/08 05:05:50;;;;;;;8.90;3.60;;;22.60;53.30;;;;;;4967978;28;20062;-57
2023/06/08 05:08:17;;;;;;;11.18;2.92;;;22.60;53.20;;;;;;4970748;28;20458;-53
2023/06/08 05:10:43;;;;;;;6.72;3.60;;;22.70;53.90;;;;;;4972317;28;20081;-55
2023/06/08 05:13:09;;;;;;;8.75;3.47;;;22.70;53.30;;;;;;4972169;28;20433;-52
2023/06/08 05:15:34;;;;;;;10.63;3.60;;;22.70;53.40;;;;;;4972034;28;20023;-52
2023/06/08 05:18:03;;;;;;;6.28;3.15;;;22.70;53.40;;;;;;4972295;28;20053;-54
2023/06/08 05:20:29;;;;;;;9.95;3.35;;;22.70;53.50;;;;;;4972374;28;20481;-56
2023/06/08 05:22:55;;;;;;;7.43;3.50;;;22.70;53.30;;;;;;4972006;28;20042;-52
2023/06/08 05:25:21;;;;;;;6.78;3.17;;;22.70;53.20;;;;;;4954796;28;20505;-55
2023/06/08 05:27:47;;;;;;;8.60;3.20;;;22.60;53.20;;;;;;4972227;28;20023;-56
2023/06/08 05:30:13;;;;;;;7.10;3.28;;;22.60;53.30;;;;;;4954823;28;20034;-54
2023/06/08 05:32:39;;;;;;;5.13;2.95;;;22.60;53.10;;;;;;4972436;28;20023;-56
2023/06/08 05:35:05;;;;;;;7.28;3.60;;;22.70;53.30;;;;;;4971833;28;20107;-54
2023/06/08 05:37:31;;;;;;;8.27;3.38;;;22.70;53.30;;;;;;4972200;28;20050;-53
2023/06/08 05:39:58;;;;;;;5.95;3.10;;;22.70;53.30;;;;;;4954878;28;20038;-54
2023/06/08 05:42:24;;;;;;;7.28;3.47;;;22.70;53.30;;;;;;4972018;28;20037;-54
2023/06/08 05:44:50;;;;;;;6.93;3.22;;;22.70;53.50;;;;;;4971422;28;20031;-54
2023/06/08 05:47:16;;;;;;;8.23;3.40;;;22.70;53.40;;;;;;4971813;28;20110;-51
2023/06/08 05:49:42;;;;;;;7.38;3.50;;;22.70;53.30;;;;;;4954443;28;20397;-51
2023/06/08 05:52:08;;;;;;;6.43;3.10;;;22.70;53.40;;;;;;4971544;28;20035;-55
2023/06/08 05:54:33;;;;;;;9.60;3.50;;;22.70;53.60;;;;;;4971397;28;20126;-50
2023/06/08 05:57:00;;;;;;;5.60;3.08;;;22.70;53.60;;;;;;4971643;28;20051;-55
2023/06/08 05:59:26;;;;;;;6.22;3.10;;;22.70;53.40;;;;;;4971561;28;20466;-58
2023/06/08 06:01:53;;;;;;;6.28;3.22;;;22.70;53.70;;;;;;4971450;28;20059;-56
2023/06/08 06:04:19;;;;;;;6.47;3.15;;;22.70;53.90;;;;;;4971166;28;20105;-55
2023/06/08 06:06:45;;;;;;;8.38;3.20;;;22.70;53.40;;;;;;4971505;28;20465;-57
2023/06/08 06:09:11;;;;;;;5.90;3.10;;;22.70;53.80;;;;;;4971458;28;20049;-53
2023/06/08 06:11:38;;;;;;;8.95;3.33;;;22.70;53.50;;;;;;4971285;28;20022;-53
2023/06/08 06:14:04;;;;;;;10.23;3.22;;;22.70;53.50;;;;;;4971418;28;20107;-55
2023/06/08 06:16:29;;;;;;;9.65;3.40;;;22.70;53.30;;;;;;4970100;28;20092;-49
2023/06/08 06:18:56;;;;;;;11.45;3.65;;;22.70;53.90;;;;;;4971148;28;20034;-54
2023/06/08 06:21:22;;;;;;;9.75;3.75;;;22.70;53.00;;;;;;4971330;28;20080;-55
2023/06/08 06:23:48;;;;;;;14.00;4.55;;;22.70;54.50;;;;;;4970727;28;20504;-55
2023/06/08 06:26:14;;;;;;;21.63;5.03;;;22.70;52.60;;;;;;4971294;28;20023;-55
2023/06/08 06:28:40;;;;;;;13.32;4.03;;;22.70;51.70;;;;;;4971144;28;20030;-54
2023/06/08 06:31:06;;;;;;;14.18;3.72;;;22.70;53.10;;;;;;4971128;28;20436;-55
2023/06/08 06:33:32;;;;;;;12.27;4.28;;;22.70;53.50;;;;;;4970705;28;20132;-54
2023/06/08 06:35:58;;;;;;;12.80;4.80;;;22.70;52.60;;;;;;4970996;28;20031;-55
2023/06/08 06:38:24;;;;;;;15.13;4.53;;;22.80;54.20;;;;;;4971047;28;20026;-54
2023/06/08 06:40:52;;;;;;;19.52;5.20;;;22.80;53.40;;;;;;4970937;28;20555;-52
2023/06/08 06:43:21;;;;;;;13.93;5.05;;;22.80;52.50;;;;;;4966945;28;20081;-57
2023/06/08 06:45:52;;;;;;;23.08;5.50;;;22.80;53.30;;;;;;4947591;28;20502;-56
2023/06/08 06:48:20;;;;;;;20.92;5.22;;;22.80;52.10;;;;;;4968171;28;20114;-56
2023/06/08 06:50:46;;;;;;;14.60;4.80;;;22.90;51.90;;;;;;4954963;28;20031;-55
2023/06/08 06:53:13;;;;;;;18.50;5.20;;;22.80;52.30;;;;;;4949201;28;20031;-53
2023/06/08 06:55:42;;;;;;;17.08;5.60;;;22.80;52.20;;;;;;4947570;28;20031;-57
2023/06/08 06:58:08;;;;;;;21.73;6.70;;;22.90;51.50;;;;;;4955938;28;20073;-56
2023/06/08 07:00:37;;;;;;;14.10;5.23;;;22.80;51.20;;;;;;4954779;28;20031;-58
2023/06/08 07:03:07;;;;;;;12.57;5.13;;;22.80;51.70;;;;;;4946831;28;20283;-56
2023/06/08 07:05:39;;;;;;;12.48;5.15;;;22.80;51.60;;;;;;4962926;28;20213;-57
2023/06/08 07:08:05;;;;;;;12.38;5.15;;;22.80;51.90;;;;;;4963841;28;20324;-56
2023/06/08 07:10:31;;;;;;;11.10;5.03;;;22.70;52.00;;;;;;4948019;28;20031;-58
2023/06/08 07:12:57;;;;;;;10.57;5.05;;;22.70;52.10;;;;;;4961385;28;20489;-58
2023/06/08 07:15:23;;;;;;;12.90;4.45;;;22.70;52.20;;;;;;4951810;28;20031;-58
2023/06/08 07:17:50;;;;;;;11.70;4.90;;;22.70;52.20;;;;;;4948875;28;20132;-57
2023/06/08 07:20:15;;;;;;;12.15;4.93;;;22.70;52.30;;;;;;4948076;28;20031;-56
2023/06/08 07:22:41;;;;;;;16.40;4.88;;;22.70;52.30;;;;;;4956873;28;20118;-58
2023/06/08 07:25:07;;;;;;;12.52;5.20;;;22.80;52.30;;;;;;4952817;28;20035;-58
2023/06/08 07:27:33;;;;;;;12.25;4.90;;;22.80;52.30;;;;;;5034049;28;20039;-56
2023/06/08 07:29:59;;;;;;;14.85;5.00;;;22.80;52.30;;;;;;4967564;28;20068;-57
2023/06/08 07:32:26;;;;;;;13.60;4.72;;;22.80;52.40;;;;;;4963938;28;20032;-56
2023/06/08 07:34:52;;;;;;;10.25;5.20;;;22.80;52.40;;;;;;4947685;28;20054;-56
2023/06/08 07:37:18;;;;;;;12.55;4.75;;;22.80;52.50;;;;;;4962116;28;20084;-57
2023/06/08 07:39:44;;;;;;;15.00;5.22;;;22.80;52.30;;;;;;4961723;28;20043;-56
2023/06/08 07:42:10;;;;;;;14.25;5.00;;;22.80;52.30;;;;;;4961541;28;20099;-55
2023/06/08 07:44:36;;;;;;;10.70;5.05;;;22.80;52.40;;;;;;4966358;28;20208;-57
2023/06/08 07:47:02;;;;;;;15.38;4.60;;;22.80;52.40;;;;;;4958788;28;20520;-56
2023/06/08 07:49:28;;;;;;;9.32;4.57;;;22.80;52.40;;;;;;4961553;28;20029;-55
2023/06/08 07:51:54;;;;;;;9.85;4.80;;;22.80;52.40;;;;;;4946785;28;20095;-56
2023/06/08 07:54:22;;;;;;;12.43;4.88;;;22.80;52.40;;;;;;4946642;29;20062;-54
2023/06/08 07:56:49;;;;;;;8.57;4.60;;;22.80;52.30;;;;;;4947162;28;20529;-56
2023/06/08 07:59:15;;;;;;;8.57;4.68;;;22.80;52.40;;;;;;4947600;28;20479;-55
2023/06/08 08:01:42;;;;;;;8.48;4.65;;;22.90;52.50;;;;;;4947459;28;20106;-54
2023/06/08 08:04:08;;;;;;;8.80;4.03;;;22.80;52.40;;;;;;4953329;28;20034;-56
2023/06/08 08:06:34;;;;;;;7.57;4.07;;;22.80;52.40;;;;;;4954822;28;20027;-54
2023/06/08 08:09:00;;;;;;;8.48;4.90;;;22.80;52.30;;;;;;4948694;28;20081;-56
2023/06/08 08:11:27;;;;;;;9.68;4.50;;;22.80;52.40;;;;;;4966684;28;20036;-57
2023/06/08 08:13:54;;;;;;;11.35;4.57;;;22.80;52.30;;;;;;4965478;28;20038;-54
2023/06/08 08:16:21;;;;;;;11.57;4.70;;;22.80;52.50;;;;;;4945251;28;20122;-54
2023/06/08 08:18:46;;;;;;;9.48;4.65;;;22.80;52.50;;;;;;4959306;28;20023;-54
2023/06/08 08:21:12;;;;;;;9.00;4.68;;;22.80;53.00;;;;;;4966230;28;20046;-55
2023/06/08 08:23:39;;;;;;;9.18;4.70;;;22.80;52.60;;;;;;4964917;28;20038;-53
2023/06/08 08:26:05;;;;;;;10.57;4.82;;;22.80;52.40;;;;;;4965156;28;20027;-55
2023/06/08 08:28:31;;;;;;;10.15;4.55;;;22.80;52.40;;;;;;4952938;28;20031;-52
2023/06/08 08:30:57;;;;;;;7.90;4.30;;;22.80;52.50;;;;;;4966522;28;20402;-50
2023/06/08 08:33:26;;;;;;;8.05;4.20;;;22.80;52.40;;;;;;4952114;28;20042;-58
2023/06/08 08:35:52;;;;;;;9.18;4.60;;;22.80;52.30;;;;;;4966269;28;20517;-58
2023/06/08 08:38:18;;;;;;;7.95;4.20;;;22.80;52.40;;;;;;4965241;28;20038;-53
2023/06/08 08:40:44;;;;;;;6.97;4.03;;;22.80;52.50;;;;;;4947336;28;20027;-51
2023/06/08 08:43:29;;;;;;;7.53;4.10;;;22.80;52.50;;;;;;4960300;28;20039;-51
2023/06/08 08:45:58;;;;;;;7.25;4.15;;;22.90;52.50;;;;;;4949166;28;20027;-55
2023/06/08 08:48:27;;;;;;;9.95;4.45;;;22.80;52.50;;;;;;4951203;28;20042;-55
2023/06/08 08:50:57;;;;;;;12.55;4.53;;;22.90;52.60;;;;;;4954114;28;20490;-57
2023/06/08 08:53:30;;;;;;;10.75;4.65;;;22.90;52.60;;;;;;4949230;28;20024;-55
2023/06/08 08:55:57;;;;;;;7.68;4.32;;;22.90;52.60;;;;;;4950099;28;20049;-56
2023/06/08 08:58:23;;;;;;;8.02;4.10;;;22.90;52.50;;;;;;4950815;28;20126;-58
2023/06/08 09:00:49;;;;;;;9.07;4.93;;;22.90;52.60;;;;;;5026062;28;20109;-57
2023/06/08 09:03:15;;;;;;;7.82;4.10;;;22.90;52.70;;;;;;4964050;28;20039;-56
2023/06/08 09:05:43;;;;;;;8.80;4.07;;;22.90;52.70;;;;;;4961549;28;20038;-56
2023/06/08 09:08:10;;;;;;;6.97;4.20;;;22.90;52.70;;;;;;4966599;28;20035;-56
2023/06/08 09:10:36;;;;;;;6.60;4.10;;;22.90;52.80;;;;;;4953004;28;20023;-57
2023/06/08 09:13:02;;;;;;;8.52;3.97;;;22.90;52.70;;;;;;4969369;28;20504;-58
2023/06/08 09:15:37;;;;;;;9.68;4.38;;;22.90;52.60;;;;;;4969368;28;20039;-58
2023/06/08 09:18:19;;;;;;;8.50;4.43;;;22.90;52.90;;;;;;4956834;28;20078;-56
2023/06/08 09:20:46;;;;;;;8.18;4.35;;;22.90;52.60;;;;;;4956683;28;20027;-56
2023/06/08 09:26:57;;;;;;;6.88;4.18;;;22.90;52.70;;;;;;4965135;28;20035;-56
2023/06/08 09:29:44;;;;;;;10.02;3.95;;;22.90;52.80;;;;;;4970799;28;20106;-56
2023/06/08 09:32:16;;;;;;;7.82;3.92;;;22.90;52.80;;;;;;4972160;28;20035;-55
2023/06/08 09:34:50;;;;;;;9.10;4.32;;;22.90;52.60;;;;;;4971823;28;20073;-57
2023/06/08 09:37:16;;;;;;;7.43;3.83;;;22.90;52.70;;;;;;4972169;28;20030;-52
2023/06/08 09:39:43;;;;;;;7.32;3.88;;;22.90;52.70;;;;;;4972272;28;20405;-51
2023/06/08 09:42:10;;;;;;;6.35;4.10;;;22.90;52.70;;;;;;4971917;28;20456;-53
2023/06/08 09:44:36;;;;;;;7.53;4.53;;;22.90;52.70;;;;;;4971432;28;20038;-52
2023/06/08 09:47:25;;;;;;;6.85;4.20;;;22.90;52.80;;;;;;4971723;28;20026;-55
2023/06/08 09:49:52;;;;;;;6.75;4.00;;;22.90;52.70;;;;;;4971880;28;20026;-50
2023/06/08 09:52:24;;;;;;;8.52;4.35;;;22.90;52.80;;;;;;4971704;28;20023;-55
2023/06/08 09:54:51;;;;;;;8.90;4.05;;;22.90;52.60;;;;;;4970984;28;20031;-51
2023/06/08 09:57:20;;;;;;;6.13;3.78;;;22.90;53.30;;;;;;4971652;28;20031;-55
2023/06/08 09:59:53;;;;;;;6.38;3.78;;;22.90;52.70;;;;;;4971996;28;20486;-54
2023/06/08 10:02:32;;;;;;;8.48;4.05;;;22.90;52.70;;;;;;4971780;28;20305;-56
2023/06/08 10:05:12;;;;;;;5.90;4.03;;;22.90;52.70;;;;;;4954272;28;20042;-56
2023/06/08 10:07:42;;;;;;;7.00;3.90;;;22.90;52.60;;;;;;4971481;28;20301;-55
2023/06/08 10:10:10;;;;;;;6.47;4.22;;;22.90;52.70;;;;;;4971607;28;20030;-55
2023/06/08 10:12:36;;;;;;;5.47;3.85;;;22.90;52.70;;;;;;4971410;28;20426;-53
2023/06/08 10:15:03;;;;;;;8.07;3.88;;;22.90;52.70;;;;;;4971059;28;20076;-54
2023/06/08 10:17:30;;;;;;;6.15;3.72;;;22.90;52.70;;;;;;4971526;28;20035;-56
2023/06/08 10:19:58;;;;;;;7.32;3.60;;;22.90;52.70;;;;;;4971405;28;20027;-56
2023/06/08 10:22:25;;;;;;;6.47;3.53;;;22.90;52.60;;;;;;4971162;28;20030;-56
2023/06/08 10:24:52;;;;;;;6.45;3.80;;;22.90;52.70;;;;;;4970769;28;20456;-55
2023/06/08 10:27:33;;;;;;;6.75;3.65;;;22.90;52.70;;;;;;4970888;28;20483;-52
2023/06/08 10:30:01;;;;;;;6.30;3.60;;;22.90;52.60;;;;;;4971650;28;20445;-56
2023/06/08 10:32:39;;;;;;;6.20;3.42;;;22.90;53.20;;;;;;4971306;28;20080;-56
2023/06/08 10:35:07;;;;;;;8.88;4.03;;;22.90;52.70;;;;;;4970709;28;20037;-54
2023/06/08 10:37:36;;;;;;;10.10;3.90;;;22.90;52.70;;;;;;4971315;28;20117;-57
2023/06/08 10:40:09;;;;;;;8.63;4.05;;;22.90;52.70;;;;;;4971138;28;20130;-58
2023/06/08 10:42:55;;;;;;;9.43;4.05;;;22.90;52.60;;;;;;4971519;28;20054;-58
2023/06/08 10:45:43;;;;;;;7.15;3.92;;;22.90;52.70;;;;;;4971162;28;20087;-56
2023/06/08 10:48:36;;;;;;;6.78;3.58;;;22.90;52.80;;;;;;4971099;28;20046;-58
2023/06/08 10:51:24;;;;;;;7.25;4.07;;;22.90;52.60;;;;;;4971171;28;20081;-55
2023/06/08 10:54:09;;;;;;;7.85;4.28;;;22.90;52.80;;;;;;4970854;28;20053;-57
2023/06/08 10:56:56;;;;;;;6.15;3.65;;;22.90;52.70;;;;;;4971169;28;20096;-54
2023/06/08 10:59:40;;;;;;;8.18;3.95;;;22.90;52.80;;;;;;4956194;28;20620;-54
2023/06/08 11:02:28;;;;;;;7.10;3.63;;;22.90;52.80;;;;;;4971010;28;20517;-56
2023/06/08 11:05:12;;;;;;;6.15;3.42;;;22.90;52.90;;;;;;4969599;28;20104;-50
2023/06/08 11:07:38;;;;;;;5.93;3.42;;;22.90;52.80;;;;;;4970639;28;20062;-54
2023/06/08 11:10:05;;;;;;;6.90;3.80;;;23.00;53.00;;;;;;4953753;28;20062;-56
2023/06/08 11:12:31;;;;;;;7.65;3.80;;;23.00;52.80;;;;;;4970709;28;20033;-56
2023/06/08 11:14:56;;;;;;;6.32;3.40;;;22.90;52.90;;;;;;4970453;28;20101;-57
2023/06/08 11:17:22;;;;;;;6.82;3.65;;;23.00;53.00;;;;;;4970561;28;20027;-54
2023/06/08 11:19:48;;;;;;;6.68;3.70;;;23.00;52.80;;;;;;4970542;28;20050;-54
2023/06/08 11:22:14;;;;;;;7.03;3.60;;;23.00;52.90;;;;;;4970513;28;20049;-55
2023/06/08 11:24:42;;;;;;;6.00;3.60;;;22.90;52.80;;;;;;4968806;28;20092;-51
2023/06/08 11:27:14;;;;;;;7.47;3.85;;;23.00;52.80;;;;;;4970234;28;20027;-54
2023/06/08 11:29:40;;;;;;;6.32;3.42;;;23.00;52.80;;;;;;4937308;28;20023;-56
2023/06/08 11:32:10;;;;;;;5.50;3.20;;;22.90;52.80;;;;;;4970380;28;20501;-55
2023/06/08 11:34:37;;;;;;;5.03;3.42;;;22.90;52.80;;;;;;4969886;28;20027;-57
2023/06/08 11:37:04;;;;;;;5.07;3.30;;;22.90;53.50;;;;;;4970352;28;20505;-52
2023/06/08 11:39:33;;;;;;;8.25;3.58;;;22.90;52.80;;;;;;4970166;28;20034;-54
2023/06/08 11:42:02;;;;;;;7.13;3.80;;;23.00;52.70;;;;;;4970053;28;20059;-55
2023/06/08 11:44:32;;;;;;;7.47;3.78;;;22.90;52.90;;;;;;4969841;28;20332;-53
2023/06/08 11:46:58;;;;;;;6.13;3.50;;;22.90;52.90;;;;;;4970151;28;20398;-56
2023/06/08 11:49:24;;;;;;;6.13;3.45;;;23.00;52.90;;;;;;4970721;28;20026;-51
2023/06/08 11:51:50;;;;;;;6.18;3.45;;;22.90;52.80;;;;;;4969980;28;20030;-55
2023/06/08 11:54:17;;;;;;;5.93;3.50;;;22.90;52.90;;;;;;4969577;28;20375;-54
2023/06/08 11:56:46;;;;;;;6.47;3.33;;;23.00;52.80;;;;;;4969948;28;20110;-52
2023/06/08 11:59:13;;;;;;;;;;;23.00;52.90;;;;;;4970415;28;20080;-52
2023/06/08 12:01:57;;;;;;;5.57;3.50;;;22.90;52.80;;;;;;4969947;28;19914;-51
2023/06/08 12:04:34;;;;;;;5.82;3.70;;;23.00;52.90;;;;;;4969303;28;20027;-48
2023/06/08 12:07:10;;;;;;;8.57;4.00;;;23.00;52.80;;;;;;4969930;28;20118;-50
2023/06/08 12:09:46;;;;;;;5.25;3.65;;;23.00;52.60;;;;;;4969947;28;20027;-53
2023/06/08 12:12:12;;;;;;;7.72;3.63;;;23.00;52.90;;;;;;4970041;28;20406;-56
2023/06/08 12:14:45;;;;;;;8.15;4.05;;;23.00;52.90;;;;;;4969388;28;20038;-51
2023/06/08 12:17:15;;;;;;;5.90;3.42;;;23.00;52.80;;;;;;4971085;28;20371;-55
2023/06/08 12:19:50;;;;;;;6.53;3.85;;;23.00;52.90;;;;;;4973139;28;20486;-53
2023/06/08 12:22:16;;;;;;;8.13;4.15;;;23.00;52.80;;;;;;4973219;28;20383;-56
2023/06/08 12:24:42;;;;;;;7.10;4.07;;;23.00;52.80;;;;;;4972589;28;20041;-56
2023/06/08 12:27:08;;;;;;;8.32;4.00;;;22.90;52.60;;;;;;4971558;28;20058;-56
2023/06/08 12:29:36;;;;;;;7.78;3.92;;;23.00;52.80;;;;;;4972014;28;20042;-55
2023/06/08 12:32:02;;;;;;;6.90;4.38;;;22.90;52.70;;;;;;4972320;28;20168;-51
2023/06/08 12:34:30;;;;;;;8.48;4.35;;;23.00;53.00;;;;;;4971657;28;20034;-55
2023/06/08 12:36:55;;;;;;;6.85;3.85;;;23.00;52.80;;;;;;4972909;28;20027;-53
2023/06/08 12:39:21;;;;;;;7.32;4.30;;;22.90;52.90;;;;;;4972869;28;20565;-55
2023/06/08 12:41:47;;;;;;;8.57;4.65;;;22.90;52.90;;;;;;4972977;28;20030;-49
2023/06/08 12:44:13;;;;;;;6.30;4.22;;;23.00;52.90;;;;;;4972352;28;20407;-54
2023/06/08 12:46:39;;;;;;;7.68;4.07;;;23.00;53.00;;;;;;4973047;28;20478;-54
2023/06/08 12:49:06;;;;;;;6.80;4.43;;;23.00;52.90;;;;;;4972841;28;20077;-55
2023/06/08 12:51:32;;;;;;;6.68;3.88;;;23.00;52.70;;;;;;4972892;28;20035;-50
2023/06/08 12:53:58;;;;;;;5.47;4.00;;;23.00;52.80;;;;;;4972504;28;20023;-52
2023/06/08 12:56:24;;;;;;;7.93;4.15;;;23.00;53.00;;;;;;4972029;28;20054;-53